sensor_id;sensor_type;location;lat;lon;timestamp;P1;durP1;ratioP1;P2;durP2;ratioP2
10863;SDS011;5485;37.558;126.950;2022-07-24T00:00:14;8.27;;;6.00;;
10863;SDS011;5485;37.558;126.950;2022-07-24T00:02:41;5.88;;;5.47;;
10863;SDS011;5485;37.558;126.950;2022-07-24T00:05:09;5.90;;;5.47;;
10863;SDS011;5485;37.558;126.950;2022-07-24T00:07:36;6.07;;;5.57;;
10863;SDS011;5485;37.558;126.950;2022-07-24T00:10:03;6.00;;;5.50;;
10863;SDS011;5485;37.558;126.950;2022-07-24T00:12:31;5.97;;;5.57;;
10863;SDS011;5485;37.558;126.950;2022-07-24T00:14:58;5.32;;;5.03;;
10863;SDS011;5485;37.558;126.950;2022-07-24T00:17:25;5.93;;;5.32;;
10863;SDS011;5485;37.558;126.950;2022-07-24T00:19:52;6.00;;;5.18;;
10863;SDS011;5485;37.558;126.950;2022-07-24T00:22:19;5.57;;;5.10;;
10863;SDS011;5485;37.558;126.950;2022-07-24T00:24:46;6.00;;;5.60;;
10863;SDS011;5485;37.558;126.950;2022-07-24T00:27:13;5.35;;;4.95;;
10863;SDS011;5485;37.558;126.950;2022-07-24T00:29:40;5.60;;;5.10;;
10863;SDS011;5485;37.558;126.950;2022-07-24T00:32:07;4.97;;;4.50;;
10863;SDS011;5485;37.558;126.950;2022-07-24T00:34:33;5.65;;;5.07;;
10863;SDS011;5485;37.558;126.950;2022-07-24T00:37:00;5.40;;;4.90;;
10863;SDS011;5485;37.558;126.950;2022-07-24T00:39:27;6.55;;;5.43;;
10863;SDS011;5485;37.558;126.950;2022-07-24T00:41:54;5.50;;;5.15;;
10863;SDS011;5485;37.558;126.950;2022-07-24T00:44:22;5.50;;;5.00;;
10863;SDS011;5485;37.558;126.950;2022-07-24T00:46:48;7.30;;;5.50;;
10863;SDS011;5485;37.558;126.950;2022-07-24T00:49:17;5.93;;;5.43;;
10863;SDS011;5485;37.558;126.950;2022-07-24T00:51:47;5.22;;;4.78;;
10863;SDS011;5485;37.558;126.950;2022-07-24T00:54:16;5.10;;;4.70;;
10863;SDS011;5485;37.558;126.950;2022-07-24T00:56:45;5.15;;;4.78;;
10863;SDS011;5485;37.558;126.950;2022-07-24T00:59:19;4.70;;;4.38;;
10863;SDS011;5485;37.558;126.950;2022-07-24T01:01:47;5.43;;;4.93;;
10863;SDS011;5485;37.558;126.950;2022-07-24T01:04:15;5.45;;;4.97;;
10863;SDS011;5485;37.558;126.950;2022-07-24T01:06:42;5.60;;;5.20;;
10863;SDS011;5485;37.558;126.950;2022-07-24T01:09:10;5.25;;;4.85;;
10863;SDS011;5485;37.558;126.950;2022-07-24T01:11:37;5.13;;;4.82;;
10863;SDS011;5485;37.558;126.950;2022-07-24T01:14:05;5.93;;;5.53;;
10863;SDS011;5485;37.558;126.950;2022-07-24T01:16:33;5.82;;;5.43;;
10863;SDS011;5485;37.558;126.950;2022-07-24T01:19:00;5.57;;;5.18;;
10863;SDS011;5485;37.558;126.950;2022-07-24T01:21:27;6.90;;;6.43;;
10863;SDS011;5485;37.558;126.950;2022-07-24T01:23:54;7.45;;;6.82;;
10863;SDS011;5485;37.558;126.950;2022-07-24T01:26:21;8.10;;;7.28;;
10863;SDS011;5485;37.558;126.950;2022-07-24T01:28:48;8.13;;;7.50;;
10863;SDS011;5485;37.558;126.950;2022-07-24T01:31:15;7.50;;;6.88;;
10863;SDS011;5485;37.558;126.950;2022-07-24T01:33:42;8.55;;;7.65;;
10863;SDS011;5485;37.558;126.950;2022-07-24T01:36:09;8.95;;;8.10;;
10863;SDS011;5485;37.558;126.950;2022-07-24T01:38:35;8.05;;;7.25;;
10863;SDS011;5485;37.558;126.950;2022-07-24T01:41:02;8.80;;;8.00;;
10863;SDS011;5485;37.558;126.950;2022-07-24T01:43:29;7.50;;;6.90;;
10863;SDS011;5485;37.558;126.950;2022-07-24T01:45:56;9.23;;;8.32;;
10863;SDS011;5485;37.558;126.950;2022-07-24T01:48:23;8.68;;;8.07;;
10863;SDS011;5485;37.558;126.950;2022-07-24T01:50:50;9.15;;;8.32;;
10863;SDS011;5485;37.558;126.950;2022-07-24T01:53:17;9.48;;;8.70;;
10863;SDS011;5485;37.558;126.950;2022-07-24T01:55:44;8.85;;;8.15;;
10863;SDS011;5485;37.558;126.950;2022-07-24T01:58:11;9.48;;;8.77;;
10863;SDS011;5485;37.558;126.950;2022-07-24T02:00:38;8.90;;;8.20;;
10863;SDS011;5485;37.558;126.950;2022-07-24T02:03:05;11.13;;;9.43;;
10863;SDS011;5485;37.558;126.950;2022-07-24T02:05:32;9.90;;;9.02;;
10863;SDS011;5485;37.558;126.950;2022-07-24T02:07:59;11.90;;;10.80;;
10863;SDS011;5485;37.558;126.950;2022-07-24T02:10:27;10.02;;;9.23;;
10863;SDS011;5485;37.558;126.950;2022-07-24T02:12:55;11.30;;;9.95;;
10863;SDS011;5485;37.558;126.950;2022-07-24T02:15:22;9.45;;;8.75;;
10863;SDS011;5485;37.558;126.950;2022-07-24T02:17:51;9.60;;;8.80;;
10863;SDS011;5485;37.558;126.950;2022-07-24T02:20:19;11.13;;;10.15;;
10863;SDS011;5485;37.558;126.950;2022-07-24T02:22:47;10.55;;;9.57;;
10863;SDS011;5485;37.558;126.950;2022-07-24T02:25:14;11.75;;;10.60;;
10863;SDS011;5485;37.558;126.950;2022-07-24T02:27:42;10.48;;;9.57;;
10863;SDS011;5485;37.558;126.950;2022-07-24T02:30:10;10.27;;;9.48;;
10863;SDS011;5485;37.558;126.950;2022-07-24T02:32:38;11.18;;;10.20;;
10863;SDS011;5485;37.558;126.950;2022-07-24T02:35:08;11.20;;;10.20;;
10863;SDS011;5485;37.558;126.950;2022-07-24T02:37:36;11.82;;;10.80;;
10863;SDS011;5485;37.558;126.950;2022-07-24T02:40:05;10.82;;;10.00;;
10863;SDS011;5485;37.558;126.950;2022-07-24T02:42:34;10.23;;;9.45;;
10863;SDS011;5485;37.558;126.950;2022-07-24T02:45:01;11.07;;;10.00;;
10863;SDS011;5485;37.558;126.950;2022-07-24T02:47:32;11.65;;;10.75;;
10863;SDS011;5485;37.558;126.950;2022-07-24T02:50:03;11.55;;;10.70;;
10863;SDS011;5485;37.558;126.950;2022-07-24T02:52:30;11.10;;;10.30;;
10863;SDS011;5485;37.558;126.950;2022-07-24T02:54:57;11.25;;;10.25;;
10863;SDS011;5485;37.558;126.950;2022-07-24T02:57:24;11.23;;;10.38;;
10863;SDS011;5485;37.558;126.950;2022-07-24T02:59:51;10.63;;;9.73;;
10863;SDS011;5485;37.558;126.950;2022-07-24T03:02:18;11.50;;;10.70;;
10863;SDS011;5485;37.558;126.950;2022-07-24T03:04:45;10.25;;;9.45;;
10863;SDS011;5485;37.558;126.950;2022-07-24T03:07:12;9.73;;;8.90;;
10863;SDS011;5485;37.558;126.950;2022-07-24T03:09:39;8.88;;;8.18;;
10863;SDS011;5485;37.558;126.950;2022-07-24T03:12:06;9.65;;;8.75;;
10863;SDS011;5485;37.558;126.950;2022-07-24T03:14:34;9.68;;;8.77;;
10863;SDS011;5485;37.558;126.950;2022-07-24T03:17:03;10.40;;;9.60;;
10863;SDS011;5485;37.558;126.950;2022-07-24T03:19:30;10.10;;;9.18;;
10863;SDS011;5485;37.558;126.950;2022-07-24T03:21:57;9.50;;;8.77;;
10863;SDS011;5485;37.558;126.950;2022-07-24T03:24:24;9.35;;;8.63;;
10863;SDS011;5485;37.558;126.950;2022-07-24T03:26:51;9.85;;;8.85;;
10863;SDS011;5485;37.558;126.950;2022-07-24T03:29:22;10.75;;;9.85;;
10863;SDS011;5485;37.558;126.950;2022-07-24T03:31:49;9.05;;;8.35;;
10863;SDS011;5485;37.558;126.950;2022-07-24T03:34:15;10.10;;;9.30;;
10863;SDS011;5485;37.558;126.950;2022-07-24T03:36:42;10.55;;;9.70;;
10863;SDS011;5485;37.558;126.950;2022-07-24T03:39:09;10.60;;;9.68;;
10863;SDS011;5485;37.558;126.950;2022-07-24T03:41:36;11.32;;;10.32;;
10863;SDS011;5485;37.558;126.950;2022-07-24T03:44:03;11.05;;;10.02;;
10863;SDS011;5485;37.558;126.950;2022-07-24T03:46:30;10.57;;;9.63;;
10863;SDS011;5485;37.558;126.950;2022-07-24T03:48:57;10.43;;;9.55;;
10863;SDS011;5485;37.558;126.950;2022-07-24T03:51:24;11.02;;;10.10;;
10863;SDS011;5485;37.558;126.950;2022-07-24T03:53:51;11.13;;;10.10;;
10863;SDS011;5485;37.558;126.950;2022-07-24T03:56:19;10.52;;;9.70;;
10863;SDS011;5485;37.558;126.950;2022-07-24T03:58:45;12.10;;;11.07;;
10863;SDS011;5485;37.558;126.950;2022-07-24T04:01:12;11.23;;;10.32;;
10863;SDS011;5485;37.558;126.950;2022-07-24T04:03:39;11.15;;;10.25;;
10863;SDS011;5485;37.558;126.950;2022-07-24T04:06:06;11.30;;;10.20;;
10863;SDS011;5485;37.558;126.950;2022-07-24T04:08:33;10.50;;;9.70;;
10863;SDS011;5485;37.558;126.950;2022-07-24T04:11:00;10.68;;;9.77;;
10863;SDS011;5485;37.558;126.950;2022-07-24T04:13:28;11.05;;;10.25;;
10863;SDS011;5485;37.558;126.950;2022-07-24T04:15:56;10.27;;;9.48;;
10863;SDS011;5485;37.558;126.950;2022-07-24T04:18:24;10.10;;;9.23;;
10863;SDS011;5485;37.558;126.950;2022-07-24T04:20:52;11.23;;;10.25;;
10863;SDS011;5485;37.558;126.950;2022-07-24T04:23:19;10.65;;;9.85;;
10863;SDS011;5485;37.558;126.950;2022-07-24T04:25:48;11.05;;;10.10;;
10863;SDS011;5485;37.558;126.950;2022-07-24T04:28:15;13.80;;;9.93;;
10863;SDS011;5485;37.558;126.950;2022-07-24T04:30:42;10.02;;;9.23;;
10863;SDS011;5485;37.558;126.950;2022-07-24T04:33:09;10.77;;;9.77;;
10863;SDS011;5485;37.558;126.950;2022-07-24T04:35:36;10.38;;;9.35;;
10863;SDS011;5485;37.558;126.950;2022-07-24T04:38:03;11.68;;;10.77;;
10863;SDS011;5485;37.558;126.950;2022-07-24T04:40:30;10.40;;;9.52;;
10863;SDS011;5485;37.558;126.950;2022-07-24T04:42:56;10.90;;;9.85;;
10863;SDS011;5485;37.558;126.950;2022-07-24T04:45:23;10.82;;;9.82;;
10863;SDS011;5485;37.558;126.950;2022-07-24T04:47:50;10.70;;;9.80;;
10863;SDS011;5485;37.558;126.950;2022-07-24T04:50:17;9.90;;;9.20;;
10863;SDS011;5485;37.558;126.950;2022-07-24T04:52:44;9.73;;;9.02;;
10863;SDS011;5485;37.558;126.950;2022-07-24T04:55:11;10.48;;;9.63;;
10863;SDS011;5485;37.558;126.950;2022-07-24T04:57:41;10.57;;;9.77;;
10863;SDS011;5485;37.558;126.950;2022-07-24T05:00:09;10.73;;;9.73;;
10863;SDS011;5485;37.558;126.950;2022-07-24T05:02:37;10.38;;;9.43;;
10863;SDS011;5485;37.558;126.950;2022-07-24T05:05:07;11.00;;;10.00;;
10863;SDS011;5485;37.558;126.950;2022-07-24T05:07:40;12.00;;;10.85;;
10863;SDS011;5485;37.558;126.950;2022-07-24T05:10:07;12.30;;;10.93;;
10863;SDS011;5485;37.558;126.950;2022-07-24T05:12:34;11.15;;;10.38;;
10863;SDS011;5485;37.558;126.950;2022-07-24T05:15:05;12.82;;;11.80;;
10863;SDS011;5485;37.558;126.950;2022-07-24T05:17:36;12.40;;;11.40;;
10863;SDS011;5485;37.558;126.950;2022-07-24T05:20:04;13.00;;;11.90;;
10863;SDS011;5485;37.558;126.950;2022-07-24T05:22:32;12.38;;;11.38;;
10863;SDS011;5485;37.558;126.950;2022-07-24T05:24:59;13.07;;;11.98;;
10863;SDS011;5485;37.558;126.950;2022-07-24T05:27:25;14.00;;;12.80;;
10863;SDS011;5485;37.558;126.950;2022-07-24T05:29:52;12.93;;;11.85;;
10863;SDS011;5485;37.558;126.950;2022-07-24T05:32:19;14.57;;;13.07;;
10863;SDS011;5485;37.558;126.950;2022-07-24T05:34:46;13.77;;;12.57;;
10863;SDS011;5485;37.558;126.950;2022-07-24T05:37:13;14.13;;;12.93;;
10863;SDS011;5485;37.558;126.950;2022-07-24T05:39:40;14.35;;;13.15;;
10863;SDS011;5485;37.558;126.950;2022-07-24T05:42:07;13.40;;;12.15;;
10863;SDS011;5485;37.558;126.950;2022-07-24T05:44:34;14.23;;;13.02;;
10863;SDS011;5485;37.558;126.950;2022-07-24T05:47:02;14.50;;;13.27;;
10863;SDS011;5485;37.558;126.950;2022-07-24T05:49:29;13.95;;;12.85;;
10863;SDS011;5485;37.558;126.950;2022-07-24T05:51:56;14.13;;;12.80;;
10863;SDS011;5485;37.558;126.950;2022-07-24T05:54:25;13.27;;;12.25;;
10863;SDS011;5485;37.558;126.950;2022-07-24T05:56:52;12.80;;;11.80;;
10863;SDS011;5485;37.558;126.950;2022-07-24T05:59:19;14.02;;;12.82;;
10863;SDS011;5485;37.558;126.950;2022-07-24T06:01:48;13.25;;;12.05;;
10863;SDS011;5485;37.558;126.950;2022-07-24T06:04:15;15.07;;;13.85;;
10863;SDS011;5485;37.558;126.950;2022-07-24T06:06:50;14.95;;;13.73;;
10863;SDS011;5485;37.558;126.950;2022-07-24T06:09:17;15.38;;;14.07;;
10863;SDS011;5485;37.558;126.950;2022-07-24T06:11:44;15.50;;;14.25;;
10863;SDS011;5485;37.558;126.950;2022-07-24T06:14:11;15.43;;;14.05;;
10863;SDS011;5485;37.558;126.950;2022-07-24T06:16:37;15.55;;;14.23;;
10863;SDS011;5485;37.558;126.950;2022-07-24T06:19:04;16.58;;;15.05;;
10863;SDS011;5485;37.558;126.950;2022-07-24T06:21:31;15.60;;;14.15;;
10863;SDS011;5485;37.558;126.950;2022-07-24T06:23:58;15.98;;;14.52;;
10863;SDS011;5485;37.558;126.950;2022-07-24T06:26:25;16.40;;;14.90;;
10863;SDS011;5485;37.558;126.950;2022-07-24T06:28:52;17.20;;;15.55;;
10863;SDS011;5485;37.558;126.950;2022-07-24T06:31:21;16.33;;;14.73;;
10863;SDS011;5485;37.558;126.950;2022-07-24T06:33:48;16.38;;;14.98;;
10863;SDS011;5485;37.558;126.950;2022-07-24T06:36:15;17.85;;;16.27;;
10863;SDS011;5485;37.558;126.950;2022-07-24T06:38:42;17.88;;;16.35;;
10863;SDS011;5485;37.558;126.950;2022-07-24T06:41:09;17.63;;;16.13;;
10863;SDS011;5485;37.558;126.950;2022-07-24T06:43:35;17.25;;;15.50;;
10863;SDS011;5485;37.558;126.950;2022-07-24T06:46:02;18.73;;;17.13;;
10863;SDS011;5485;37.558;126.950;2022-07-24T06:48:29;19.63;;;17.75;;
10863;SDS011;5485;37.558;126.950;2022-07-24T06:50:56;19.35;;;17.70;;
10863;SDS011;5485;37.558;126.950;2022-07-24T06:53:23;19.52;;;17.70;;
10863;SDS011;5485;37.558;126.950;2022-07-24T06:55:53;21.10;;;18.33;;
10863;SDS011;5485;37.558;126.950;2022-07-24T06:58:20;18.77;;;17.02;;
10863;SDS011;5485;37.558;126.950;2022-07-24T07:00:48;18.42;;;16.55;;
10863;SDS011;5485;37.558;126.950;2022-07-24T07:03:15;18.40;;;16.90;;
10863;SDS011;5485;37.558;126.950;2022-07-24T07:05:44;18.88;;;17.25;;
10863;SDS011;5485;37.558;126.950;2022-07-24T07:08:12;19.98;;;18.20;;
10863;SDS011;5485;37.558;126.950;2022-07-24T07:10:38;19.48;;;17.42;;
10863;SDS011;5485;37.558;126.950;2022-07-24T07:13:05;18.92;;;17.33;;
10863;SDS011;5485;37.558;126.950;2022-07-24T07:15:34;19.65;;;18.00;;
10863;SDS011;5485;37.558;126.950;2022-07-24T07:18:01;19.08;;;17.02;;
10863;SDS011;5485;37.558;126.950;2022-07-24T07:20:28;20.25;;;18.35;;
10863;SDS011;5485;37.558;126.950;2022-07-24T07:22:54;18.30;;;16.77;;
10863;SDS011;5485;37.558;126.950;2022-07-24T07:25:21;21.25;;;19.42;;
10863;SDS011;5485;37.558;126.950;2022-07-24T07:27:48;21.52;;;19.63;;
10863;SDS011;5485;37.558;126.950;2022-07-24T07:30:15;21.27;;;19.20;;
10863;SDS011;5485;37.558;126.950;2022-07-24T07:32:42;19.92;;;18.15;;
10863;SDS011;5485;37.558;126.950;2022-07-24T07:35:09;20.58;;;18.88;;
10863;SDS011;5485;37.558;126.950;2022-07-24T07:37:36;20.80;;;18.83;;
10863;SDS011;5485;37.558;126.950;2022-07-24T07:40:03;20.23;;;18.52;;
10863;SDS011;5485;37.558;126.950;2022-07-24T07:42:30;20.38;;;18.48;;
10863;SDS011;5485;37.558;126.950;2022-07-24T07:44:57;18.52;;;16.90;;
10863;SDS011;5485;37.558;126.950;2022-07-24T07:47:24;18.23;;;16.73;;
10863;SDS011;5485;37.558;126.950;2022-07-24T07:49:51;19.30;;;17.50;;
10863;SDS011;5485;37.558;126.950;2022-07-24T07:52:18;18.00;;;16.55;;
10863;SDS011;5485;37.558;126.950;2022-07-24T07:54:45;17.60;;;16.00;;
10863;SDS011;5485;37.558;126.950;2022-07-24T07:57:11;20.20;;;18.50;;
10863;SDS011;5485;37.558;126.950;2022-07-24T07:59:38;22.33;;;20.30;;
10863;SDS011;5485;37.558;126.950;2022-07-24T08:02:05;20.58;;;18.48;;
10863;SDS011;5485;37.558;126.950;2022-07-24T08:04:32;23.90;;;21.70;;
10863;SDS011;5485;37.558;126.950;2022-07-24T08:07:00;25.45;;;22.98;;
10863;SDS011;5485;37.558;126.950;2022-07-24T08:09:27;25.55;;;23.17;;
10863;SDS011;5485;37.558;126.950;2022-07-24T08:11:54;26.08;;;23.58;;
10863;SDS011;5485;37.558;126.950;2022-07-24T08:14:21;27.13;;;24.45;;
10863;SDS011;5485;37.558;126.950;2022-07-24T08:16:48;26.10;;;23.63;;
10863;SDS011;5485;37.558;126.950;2022-07-24T08:19:15;26.75;;;24.45;;
10863;SDS011;5485;37.558;126.950;2022-07-24T08:21:42;27.88;;;25.27;;
10863;SDS011;5485;37.558;126.950;2022-07-24T08:24:11;28.17;;;25.67;;
10863;SDS011;5485;37.558;126.950;2022-07-24T08:26:38;29.15;;;26.33;;
10863;SDS011;5485;37.558;126.950;2022-07-24T08:29:04;28.33;;;25.73;;
10863;SDS011;5485;37.558;126.950;2022-07-24T08:31:34;29.25;;;26.50;;
10863;SDS011;5485;37.558;126.950;2022-07-24T08:34:01;30.52;;;27.52;;
10863;SDS011;5485;37.558;126.950;2022-07-24T08:36:28;28.05;;;25.25;;
10863;SDS011;5485;37.558;126.950;2022-07-24T08:38:55;27.98;;;25.38;;
10863;SDS011;5485;37.558;126.950;2022-07-24T08:41:22;25.67;;;22.90;;
10863;SDS011;5485;37.558;126.950;2022-07-24T08:43:49;26.48;;;23.98;;
10863;SDS011;5485;37.558;126.950;2022-07-24T08:46:16;23.98;;;21.98;;
10863;SDS011;5485;37.558;126.950;2022-07-24T08:48:43;21.48;;;19.58;;
10863;SDS011;5485;37.558;126.950;2022-07-24T08:51:14;22.75;;;20.75;;
10863;SDS011;5485;37.558;126.950;2022-07-24T08:53:42;21.85;;;19.90;;
10863;SDS011;5485;37.558;126.950;2022-07-24T08:56:09;23.50;;;21.25;;
10863;SDS011;5485;37.558;126.950;2022-07-24T08:58:40;23.27;;;21.17;;
10863;SDS011;5485;37.558;126.950;2022-07-24T09:01:07;23.52;;;21.45;;
10863;SDS011;5485;37.558;126.950;2022-07-24T09:03:38;22.30;;;20.33;;
10863;SDS011;5485;37.558;126.950;2022-07-24T09:06:07;22.70;;;20.63;;
10863;SDS011;5485;37.558;126.950;2022-07-24T09:08:36;22.65;;;20.75;;
10863;SDS011;5485;37.558;126.950;2022-07-24T09:11:07;23.13;;;21.13;;
10863;SDS011;5485;37.558;126.950;2022-07-24T09:13:35;22.23;;;20.33;;
10863;SDS011;5485;37.558;126.950;2022-07-24T09:16:21;23.88;;;21.70;;
10863;SDS011;5485;37.558;126.950;2022-07-24T09:18:52;23.45;;;21.30;;
10863;SDS011;5485;37.558;126.950;2022-07-24T09:21:33;23.65;;;21.38;;
10863;SDS011;5485;37.558;126.950;2022-07-24T09:26:58;23.80;;;21.42;;
10863;SDS011;5485;37.558;126.950;2022-07-24T09:29:25;23.33;;;20.92;;
10863;SDS011;5485;37.558;126.950;2022-07-24T09:31:59;23.35;;;20.92;;
10863;SDS011;5485;37.558;126.950;2022-07-24T09:34:28;22.80;;;20.70;;
10863;SDS011;5485;37.558;126.950;2022-07-24T09:37:04;22.70;;;20.60;;
10863;SDS011;5485;37.558;126.950;2022-07-24T09:39:35;22.50;;;20.52;;
10863;SDS011;5485;37.558;126.950;2022-07-24T09:42:04;23.02;;;21.02;;
10863;SDS011;5485;37.558;126.950;2022-07-24T09:44:32;23.15;;;21.15;;
10863;SDS011;5485;37.558;126.950;2022-07-24T09:47:06;23.60;;;21.60;;
10863;SDS011;5485;37.558;126.950;2022-07-24T09:49:38;23.25;;;21.30;;
10863;SDS011;5485;37.558;126.950;2022-07-24T09:54:33;22.63;;;20.73;;
10863;SDS011;5485;37.558;126.950;2022-07-24T09:59:49;23.13;;;20.88;;
10863;SDS011;5485;37.558;126.950;2022-07-24T10:02:21;23.02;;;21.02;;
10863;SDS011;5485;37.558;126.950;2022-07-24T10:04:58;23.42;;;21.30;;
10863;SDS011;5485;37.558;126.950;2022-07-24T10:07:27;21.60;;;19.63;;
10863;SDS011;5485;37.558;126.950;2022-07-24T10:09:56;20.38;;;18.65;;
10863;SDS011;5485;37.558;126.950;2022-07-24T10:12:25;20.45;;;18.80;;
10863;SDS011;5485;37.558;126.950;2022-07-24T10:14:55;20.83;;;18.92;;
10863;SDS011;5485;37.558;126.950;2022-07-24T10:17:34;19.45;;;17.80;;
10863;SDS011;5485;37.558;126.950;2022-07-24T10:20:07;20.33;;;18.65;;
10863;SDS011;5485;37.558;126.950;2022-07-24T10:22:45;20.17;;;18.48;;
10863;SDS011;5485;37.558;126.950;2022-07-24T10:25:28;22.33;;;20.20;;
10863;SDS011;5485;37.558;126.950;2022-07-24T10:28:06;25.00;;;22.67;;
10863;SDS011;5485;37.558;126.950;2022-07-24T10:30:39;23.77;;;20.77;;
10863;SDS011;5485;37.558;126.950;2022-07-24T10:33:07;22.80;;;20.80;;
10863;SDS011;5485;37.558;126.950;2022-07-24T10:35:34;22.38;;;20.38;;
10863;SDS011;5485;37.558;126.950;2022-07-24T10:38:36;21.90;;;20.00;;
10863;SDS011;5485;37.558;126.950;2022-07-24T10:41:05;23.13;;;20.88;;
10863;SDS011;5485;37.558;126.950;2022-07-24T10:43:38;23.33;;;21.30;;
10863;SDS011;5485;37.558;126.950;2022-07-24T10:48:36;25.48;;;23.05;;
10863;SDS011;5485;37.558;126.950;2022-07-24T10:51:06;21.45;;;19.50;;
10863;SDS011;5485;37.558;126.950;2022-07-24T10:59:12;23.50;;;21.45;;
10863;SDS011;5485;37.558;126.950;2022-07-24T11:01:44;22.60;;;20.35;;
10863;SDS011;5485;37.558;126.950;2022-07-24T11:06:49;23.17;;;20.98;;
10863;SDS011;5485;37.558;126.950;2022-07-24T11:09:22;23.30;;;21.23;;
10863;SDS011;5485;37.558;126.950;2022-07-24T11:14:23;22.50;;;20.50;;
10863;SDS011;5485;37.558;126.950;2022-07-24T11:16:50;21.25;;;19.50;;
10863;SDS011;5485;37.558;126.950;2022-07-24T11:21:46;21.77;;;19.75;;
10863;SDS011;5485;37.558;126.950;2022-07-24T11:29:24;22.60;;;20.42;;
10863;SDS011;5485;37.558;126.950;2022-07-24T11:31:54;18.95;;;17.25;;
10863;SDS011;5485;37.558;126.950;2022-07-24T11:34:21;20.50;;;18.70;;
10863;SDS011;5485;37.558;126.950;2022-07-24T11:36:50;19.40;;;17.83;;
10863;SDS011;5485;37.558;126.950;2022-07-24T11:39:18;19.60;;;17.60;;
10863;SDS011;5485;37.558;126.950;2022-07-24T11:41:50;20.27;;;18.52;;
10863;SDS011;5485;37.558;126.950;2022-07-24T11:44:28;21.60;;;19.52;;
10863;SDS011;5485;37.558;126.950;2022-07-24T11:46:56;18.40;;;16.85;;
10863;SDS011;5485;37.558;126.950;2022-07-24T11:49:25;18.75;;;17.05;;
10863;SDS011;5485;37.558;126.950;2022-07-24T11:51:53;22.92;;;20.90;;
10863;SDS011;5485;37.558;126.950;2022-07-24T11:54:25;20.30;;;18.50;;
10863;SDS011;5485;37.558;126.950;2022-07-24T11:56:53;19.85;;;17.85;;
10863;SDS011;5485;37.558;126.950;2022-07-24T11:59:31;19.67;;;17.88;;
10863;SDS011;5485;37.558;126.950;2022-07-24T12:02:05;21.75;;;19.85;;
10863;SDS011;5485;37.558;126.950;2022-07-24T12:04:34;19.92;;;18.02;;
10863;SDS011;5485;37.558;126.950;2022-07-24T12:07:06;20.17;;;18.48;;
10863;SDS011;5485;37.558;126.950;2022-07-24T12:09:44;19.73;;;17.83;;
10863;SDS011;5485;37.558;126.950;2022-07-24T12:12:32;19.65;;;17.90;;
10863;SDS011;5485;37.558;126.950;2022-07-24T12:15:08;19.75;;;17.85;;
10863;SDS011;5485;37.558;126.950;2022-07-24T12:17:56;19.83;;;18.00;;
10863;SDS011;5485;37.558;126.950;2022-07-24T12:20:44;19.48;;;17.45;;
10863;SDS011;5485;37.558;126.950;2022-07-24T12:23:12;19.15;;;17.45;;
10863;SDS011;5485;37.558;126.950;2022-07-24T12:25:41;21.15;;;19.00;;
10863;SDS011;5485;37.558;126.950;2022-07-24T12:28:13;18.00;;;16.30;;
10863;SDS011;5485;37.558;126.950;2022-07-24T12:30:42;18.20;;;16.55;;
10863;SDS011;5485;37.558;126.950;2022-07-24T12:33:20;18.70;;;16.88;;
10863;SDS011;5485;37.558;126.950;2022-07-24T12:35:53;19.30;;;14.80;;
10863;SDS011;5485;37.558;126.950;2022-07-24T12:40:51;19.27;;;17.40;;
10863;SDS011;5485;37.558;126.950;2022-07-24T12:43:28;17.80;;;15.90;;
10863;SDS011;5485;37.558;126.950;2022-07-24T12:46:06;18.75;;;16.92;;
10863;SDS011;5485;37.558;126.950;2022-07-24T12:48:34;18.13;;;16.42;;
10863;SDS011;5485;37.558;126.950;2022-07-24T12:53:41;17.38;;;15.88;;
10863;SDS011;5485;37.558;126.950;2022-07-24T12:56:09;17.40;;;15.85;;
10863;SDS011;5485;37.558;126.950;2022-07-24T12:58:55;20.75;;;18.75;;
10863;SDS011;5485;37.558;126.950;2022-07-24T13:01:28;18.35;;;16.50;;
10863;SDS011;5485;37.558;126.950;2022-07-24T13:04:10;17.27;;;15.57;;
10863;SDS011;5485;37.558;126.950;2022-07-24T13:06:41;17.17;;;15.52;;
10863;SDS011;5485;37.558;126.950;2022-07-24T13:09:10;17.33;;;15.57;;
10863;SDS011;5485;37.558;126.950;2022-07-24T13:11:39;16.67;;;15.15;;
10863;SDS011;5485;37.558;126.950;2022-07-24T13:14:08;17.30;;;15.50;;
10863;SDS011;5485;37.558;126.950;2022-07-24T13:16:37;18.77;;;16.85;;
10863;SDS011;5485;37.558;126.950;2022-07-24T13:19:05;17.75;;;16.20;;
10863;SDS011;5485;37.558;126.950;2022-07-24T13:21:33;17.98;;;15.93;;
10863;SDS011;5485;37.558;126.950;2022-07-24T13:24:02;18.77;;;17.08;;
10863;SDS011;5485;37.558;126.950;2022-07-24T13:26:29;16.80;;;15.20;;
10863;SDS011;5485;37.558;126.950;2022-07-24T13:28:57;18.60;;;16.92;;
10863;SDS011;5485;37.558;126.950;2022-07-24T13:31:24;16.83;;;15.10;;
10863;SDS011;5485;37.558;126.950;2022-07-24T13:33:51;18.17;;;16.35;;
10863;SDS011;5485;37.558;126.950;2022-07-24T13:36:19;18.25;;;16.52;;
10863;SDS011;5485;37.558;126.950;2022-07-24T13:38:46;18.15;;;14.32;;
10863;SDS011;5485;37.558;126.950;2022-07-24T13:41:13;16.63;;;15.10;;
10863;SDS011;5485;37.558;126.950;2022-07-24T13:43:42;16.38;;;14.77;;
10863;SDS011;5485;37.558;126.950;2022-07-24T13:46:09;16.35;;;14.85;;
10863;SDS011;5485;37.558;126.950;2022-07-24T13:48:36;18.23;;;16.35;;
10863;SDS011;5485;37.558;126.950;2022-07-24T13:51:03;18.88;;;17.08;;
10863;SDS011;5485;37.558;126.950;2022-07-24T13:53:30;21.52;;;19.52;;
10863;SDS011;5485;37.558;126.950;2022-07-24T13:55:57;18.38;;;16.77;;
10863;SDS011;5485;37.558;126.950;2022-07-24T13:58:24;20.05;;;17.98;;
10863;SDS011;5485;37.558;126.950;2022-07-24T14:00:51;19.02;;;16.10;;
10863;SDS011;5485;37.558;126.950;2022-07-24T14:03:18;20.33;;;18.42;;
10863;SDS011;5485;37.558;126.950;2022-07-24T14:05:45;19.73;;;18.02;;
10863;SDS011;5485;37.558;126.950;2022-07-24T14:08:12;17.27;;;15.80;;
10863;SDS011;5485;37.558;126.950;2022-07-24T14:10:39;17.15;;;15.55;;
10863;SDS011;5485;37.558;126.950;2022-07-24T14:13:06;18.85;;;16.13;;
10863;SDS011;5485;37.558;126.950;2022-07-24T14:15:36;17.60;;;15.82;;
10863;SDS011;5485;37.558;126.950;2022-07-24T14:18:03;16.42;;;14.65;;
10863;SDS011;5485;37.558;126.950;2022-07-24T14:20:30;17.70;;;15.90;;
10863;SDS011;5485;37.558;126.950;2022-07-24T14:22:57;18.13;;;16.42;;
10863;SDS011;5485;37.558;126.950;2022-07-24T14:25:24;18.13;;;16.42;;
10863;SDS011;5485;37.558;126.950;2022-07-24T14:27:51;19.27;;;16.08;;
10863;SDS011;5485;37.558;126.950;2022-07-24T14:30:22;17.45;;;15.35;;
10863;SDS011;5485;37.558;126.950;2022-07-24T14:32:49;16.90;;;15.15;;
10863;SDS011;5485;37.558;126.950;2022-07-24T14:35:16;18.05;;;16.38;;
10863;SDS011;5485;37.558;126.950;2022-07-24T14:37:43;19.88;;;16.83;;
10863;SDS011;5485;37.558;126.950;2022-07-24T14:40:10;16.80;;;15.10;;
10863;SDS011;5485;37.558;126.950;2022-07-24T14:42:37;15.63;;;13.93;;
10863;SDS011;5485;37.558;126.950;2022-07-24T14:45:04;14.55;;;13.15;;
10863;SDS011;5485;37.558;126.950;2022-07-24T14:47:31;13.57;;;12.20;;
10863;SDS011;5485;37.558;126.950;2022-07-24T14:49:58;14.27;;;12.93;;
10863;SDS011;5485;37.558;126.950;2022-07-24T14:52:25;13.52;;;12.25;;
10863;SDS011;5485;37.558;126.950;2022-07-24T14:54:52;15.20;;;13.50;;